createdAt,value
2018-06-01T00:00:48.659Z,25.72
2018-06-01T00:03:17.006Z,25.83
2018-06-01T00:05:45.327Z,25.95
2018-06-01T00:08:13.660Z,25.93
2018-06-01T00:10:41.984Z,25.62
2018-06-01T00:13:10.354Z,25.74
2018-06-01T00:15:38.691Z,25.62
2018-06-01T00:18:07.108Z,25.70
2018-06-01T00:20:36.251Z,25.62
2018-06-01T00:23:04.583Z,25.71
2018-06-01T00:25:33.729Z,25.62
2018-06-01T00:28:02.840Z,25.64
2018-06-01T00:30:31.146Z,25.62
2018-06-01T00:33:00.277Z,25.41
2018-06-01T00:35:28.587Z,25.44
2018-06-01T00:37:56.932Z,25.21
2018-06-01T00:40:25.764Z,25.42
2018-06-01T00:42:54.282Z,25.54
2018-06-01T00:45:22.610Z,25.23
2018-06-01T00:47:50.989Z,25.19
2018-06-01T00:50:19.360Z,25.24
2018-06-01T00:52:47.693Z,25.03
2018-06-01T00:55:25.468Z,25.07
2018-06-01T00:57:53.803Z,24.60
2018-06-01T01:00:22.134Z,24.64
2018-06-01T01:02:51.394Z,24.92
2018-06-01T01:05:19.712Z,24.89
2018-06-01T01:07:48.057Z,24.63
2018-06-01T01:10:16.397Z,24.69
2018-06-01T01:12:44.709Z,24.66
2018-06-01T01:15:13.023Z,24.46
2018-06-01T01:17:41.344Z,24.63
2018-06-01T01:20:09.648Z,24.62
2018-06-01T01:22:37.985Z,24.56
2018-06-01T01:25:06.664Z,24.65
2018-06-01T01:27:34.986Z,24.50
2018-06-01T01:30:03.292Z,24.44
2018-06-01T01:32:31.622Z,24.55
2018-06-01T01:34:59.921Z,24.33
2018-06-01T01:37:31.929Z,24.33
2018-06-01T01:40:00.260Z,24.28
2018-06-01T01:42:28.765Z,24.19
2018-06-01T01:44:57.247Z,24.16
2018-06-01T01:47:25.922Z,24.07
2018-06-01T01:49:55.014Z,23.98
2018-06-01T01:52:23.329Z,23.84
2018-06-01T01:54:52.479Z,24.05
2018-06-01T01:57:20.815Z,24.11
2018-06-01T01:59:49.127Z,24.11
2018-06-01T02:02:17.459Z,24.21
2018-06-01T02:04:46.524Z,24.00
2018-06-01T02:07:14.848Z,24.03
2018-06-01T02:09:43.656Z,24.19
2018-06-01T02:12:11.991Z,24.06
2018-06-01T02:14:40.352Z,24.00
2018-06-01T02:17:08.690Z,24.09
2018-06-01T02:19:36.998Z,24.07
2018-06-01T02:22:05.307Z,23.96
2018-06-01T02:24:33.679Z,23.92
2018-06-01T02:27:01.977Z,23.85
2018-06-01T02:29:30.296Z,23.97
2018-06-01T02:31:59.123Z,23.90
2018-06-01T02:34:27.452Z,23.85
2018-06-01T02:36:55.775Z,23.60
2018-06-01T02:39:24.173Z,23.61
2018-06-01T02:41:53.283Z,23.58
2018-06-01T02:44:21.615Z,23.56
2018-06-01T02:46:49.965Z,23.61
2018-06-01T02:49:19.033Z,23.49
2018-06-01T02:51:48.138Z,23.60
2018-06-01T02:54:17.091Z,23.53
2018-06-01T02:56:45.410Z,23.53
2018-06-01T02:59:13.741Z,23.43
2018-06-01T03:01:42.099Z,23.33
2018-06-01T03:04:10.401Z,23.39
2018-06-01T03:06:56.351Z,23.41
2018-06-01T03:09:24.664Z,23.32
2018-06-01T03:11:52.983Z,23.19
2018-06-01T03:14:22.792Z,23.09
2018-06-01T03:16:51.097Z,23.12
2018-06-01T03:19:19.401Z,23.16
2018-06-01T03:21:47.756Z,23.04
2018-06-01T03:24:16.089Z,23.12
2018-06-01T03:26:45.190Z,23.10
2018-06-01T03:29:13.546Z,23.17
2018-06-01T03:31:41.876Z,23.11
2018-06-01T03:34:10.219Z,23.18
2018-06-01T03:36:39.499Z,23.29
2018-06-01T03:39:07.812Z,23.36
2018-06-01T03:41:36.903Z,23.23
2018-06-01T03:44:05.274Z,23.29
2018-06-01T03:46:33.600Z,23.11
2018-06-01T03:49:01.908Z,23.20
2018-06-01T03:51:30.241Z,23.07
2018-06-01T03:53:58.555Z,23.22
2018-06-01T03:56:26.879Z,23.14
2018-06-01T03:58:56.288Z,23.08
2018-06-01T04:01:25.363Z,23.26
2018-06-01T04:03:54.462Z,23.20
2018-06-01T04:06:23.583Z,23.24
2018-06-01T04:08:51.905Z,23.37
2018-06-01T04:11:20.259Z,23.35
2018-06-01T04:13:48.608Z,23.37
2018-06-01T04:16:17.692Z,23.39
2018-06-01T04:18:46.015Z,23.42
2018-06-01T04:21:14.708Z,23.15
2018-06-01T04:23:43.007Z,23.10
2018-06-01T04:26:11.335Z,23.26
2018-06-01T04:28:40.493Z,23.37
2018-06-01T04:31:08.828Z,23.36
2018-06-01T04:33:37.162Z,23.38
2018-06-01T04:36:06.247Z,23.07
2018-06-01T04:38:34.552Z,22.93
2018-06-01T04:41:03.646Z,22.98
2018-06-01T04:43:33.012Z,23.03
2018-06-01T04:46:01.313Z,23.08
2018-06-01T04:48:29.630Z,23.39
2018-06-01T04:50:57.978Z,23.42
2018-06-01T04:53:27.062Z,23.54
2018-06-01T04:55:55.368Z,23.64
2018-06-01T04:58:23.727Z,23.31
2018-06-01T05:00:52.024Z,23.67
2018-06-01T05:03:20.333Z,23.43
2018-06-01T05:05:49.172Z,23.51
2018-06-01T05:08:17.514Z,23.36
2018-06-01T05:10:45.848Z,23.59
2018-06-01T05:13:14.196Z,23.66
2018-06-01T05:15:42.495Z,23.92
2018-06-01T05:18:10.814Z,23.89
2018-06-01T05:20:39.148Z,24.05
2018-06-01T05:23:08.263Z,23.68
2018-06-01T05:25:36.608Z,23.78
2018-06-01T05:28:05.826Z,23.95
2018-06-01T05:30:34.929Z,24.14
2018-06-01T05:33:03.239Z,24.09
2018-06-01T05:35:31.599Z,24.24
2018-06-01T05:37:59.895Z,24.52
2018-06-01T05:40:28.237Z,24.53
2018-06-01T05:42:57.358Z,24.42
2018-06-01T05:45:25.660Z,24.60
2018-06-01T05:47:53.968Z,24.45
2018-06-01T05:50:22.957Z,24.49
2018-06-01T05:52:51.233Z,24.71
2018-06-01T05:55:19.621Z,24.98
2018-06-01T05:57:48.787Z,24.93
2018-06-01T06:00:17.155Z,24.91
2018-06-01T06:02:45.485Z,25.06
2018-06-01T06:05:14.620Z,25.25
2018-06-01T06:07:42.958Z,25.50
2018-06-01T06:10:12.044Z,25.71
2018-06-01T06:12:40.498Z,25.75
2018-06-01T06:15:08.834Z,25.88
2018-06-01T06:17:37.181Z,25.90
2018-06-01T06:20:05.529Z,25.76
2018-06-01T06:22:33.835Z,26.08
2018-06-01T06:25:02.151Z,26.14
2018-06-01T06:27:30.492Z,26.12
2018-06-01T06:29:58.870Z,26.39
2018-06-01T06:32:27.987Z,26.12
2018-06-01T06:34:57.577Z,26.35
2018-06-01T06:37:25.876Z,26.42
2018-06-01T06:39:54.191Z,26.80
2018-06-01T06:42:22.542Z,26.38
2018-06-01T06:44:50.858Z,26.56
2018-06-01T06:47:19.392Z,27.13
2018-06-01T06:49:49.212Z,27.36
2018-06-01T06:52:17.527Z,27.48
2018-06-01T06:54:45.820Z,27.59
2018-06-01T06:57:14.509Z,27.76
2018-06-01T06:59:42.823Z,27.89
2018-06-01T07:02:11.150Z,27.72
2018-06-01T07:04:39.507Z,28.03
2018-06-01T07:07:07.828Z,28.40
2018-06-01T07:09:36.202Z,28.46
2018-06-01T07:12:04.574Z,28.37
2018-06-01T07:14:32.887Z,28.42
2018-06-01T07:17:01.988Z,28.69
2018-06-01T07:19:30.667Z,28.79
2018-06-01T07:21:59.050Z,29.32
2018-06-01T07:24:28.142Z,29.52
2018-06-01T07:26:57.258Z,29.14
2018-06-01T07:29:26.332Z,28.32
2018-06-01T07:31:55.459Z,28.19
2018-06-01T07:34:23.818Z,28.45
2018-06-01T07:36:52.147Z,28.76
2018-06-01T07:39:20.537Z,28.76
2018-06-01T07:41:48.977Z,28.74
2018-06-01T07:44:17.282Z,28.95
2018-06-01T07:46:45.604Z,29.26
2018-06-01T07:49:14.400Z,29.77
2018-06-01T07:51:43.491Z,30.10
2018-06-01T07:54:12.571Z,29.82
2018-06-01T07:56:40.916Z,29.61
2018-06-01T07:59:09.248Z,30.37
2018-06-01T08:01:37.607Z,30.84
2018-06-01T08:04:06.245Z,31.12
2018-06-01T08:06:34.548Z,31.33
2018-06-01T08:09:02.877Z,31.30
2018-06-01T08:11:31.987Z,31.51
2018-06-01T08:14:00.315Z,31.75
2018-06-01T08:16:28.669Z,31.33
2018-06-01T08:18:57.040Z,30.87
2018-06-01T08:21:25.381Z,30.85
2018-06-01T08:23:53.687Z,30.82
2018-06-01T08:26:22.391Z,31.12
2018-06-01T08:28:50.899Z,30.87
2018-06-01T08:31:19.312Z,30.86
2018-06-01T08:33:47.759Z,31.04
2018-06-01T08:36:16.305Z,31.23
2018-06-01T08:38:44.849Z,31.62
2018-06-01T08:41:13.978Z,32.16
2018-06-01T08:43:42.337Z,32.60
2018-06-01T08:46:10.639Z,32.83
2018-06-01T08:48:39.097Z,32.44
2018-06-01T08:51:07.953Z,32.47
2018-06-01T08:53:36.293Z,32.72
2018-06-01T08:56:04.683Z,33.15
2018-06-01T08:58:33.214Z,33.12
2018-06-01T09:01:02.437Z,33.19
2018-06-01T09:03:31.028Z,32.99
2018-06-01T09:05:59.679Z,32.51
2018-06-01T09:08:28.125Z,32.32
2018-06-01T09:10:57.039Z,32.92
2018-06-01T09:13:25.569Z,33.09
2018-06-01T09:15:54.034Z,33.85
2018-06-01T09:18:22.968Z,34.04
2018-06-01T09:20:51.298Z,34.29
2018-06-01T09:23:20.411Z,34.41
2018-06-01T09:25:48.756Z,34.55
2018-06-01T09:28:17.151Z,34.70
2018-06-01T09:30:45.725Z,34.92
2018-06-01T09:33:14.434Z,34.94
2018-06-01T09:35:42.764Z,35.03
2018-06-01T09:38:11.361Z,33.56
2018-06-01T09:40:39.732Z,33.54
2018-06-01T09:43:08.070Z,33.38
2018-06-01T09:45:36.386Z,33.23
2018-06-01T09:48:04.757Z,33.11
2018-06-01T09:50:33.277Z,33.73
2018-06-01T09:53:01.663Z,33.75
2018-06-01T09:55:30.607Z,34.25
2018-06-01T09:57:59.045Z,33.85
2018-06-01T10:00:32.796Z,33.93
2018-06-01T10:03:01.315Z,34.13
2018-06-01T10:05:29.800Z,33.26
2018-06-01T10:07:58.483Z,33.72
2018-06-01T10:10:32.429Z,33.88
2018-06-01T10:13:01.317Z,33.93
2018-06-01T10:15:29.661Z,33.94
2018-06-01T10:17:58.004Z,33.89
2018-06-01T10:20:26.329Z,34.10
2018-06-01T10:22:55.418Z,33.47
2018-06-01T10:25:24.554Z,33.52
2018-06-01T10:27:52.932Z,33.61
2018-06-01T10:30:21.265Z,33.47
2018-06-01T10:32:50.405Z,33.64
2018-06-01T10:35:19.394Z,33.87
2018-06-01T10:37:47.761Z,33.88
2018-06-01T10:40:16.869Z,34.00
2018-06-01T10:42:45.291Z,33.43
2018-06-01T10:45:13.687Z,33.32
2018-06-01T10:47:42.015Z,33.37
2018-06-01T10:50:10.481Z,33.84
2018-06-01T10:52:38.944Z,33.20
2018-06-01T10:55:07.415Z,33.55
2018-06-01T10:57:36.104Z,33.83
2018-06-01T11:00:04.417Z,33.75
2018-06-01T11:02:32.909Z,33.49
2018-06-01T11:05:01.360Z,32.89
2018-06-01T11:07:29.717Z,32.76
2018-06-01T11:09:59.651Z,32.75
2018-06-01T11:12:28.777Z,33.00
2018-06-01T11:14:57.123Z,32.65
2018-06-01T11:17:25.651Z,33.20
2018-06-01T11:19:54.499Z,34.08
2018-06-01T11:22:23.032Z,33.85
2018-06-01T11:24:51.490Z,33.48
2018-06-01T11:27:20.130Z,33.55
2018-06-01T11:29:48.463Z,33.59
2018-06-01T11:32:16.949Z,33.41
2018-06-01T11:34:45.287Z,33.64
2018-06-01T11:37:14.499Z,34.28
2018-06-01T11:39:42.919Z,34.02
2018-06-01T11:42:11.528Z,34.11
2018-06-01T11:44:39.903Z,33.86
2018-06-01T11:47:08.284Z,33.51
2018-06-01T11:49:37.695Z,33.76
2018-06-01T11:52:06.278Z,33.95
2018-06-01T11:54:34.718Z,33.63
2018-06-01T11:57:03.196Z,33.79
2018-06-01T11:59:31.865Z,33.16
2018-06-01T12:02:00.207Z,32.72
2018-06-01T12:04:28.623Z,32.99
2018-06-01T12:06:56.972Z,31.86
2018-06-01T12:09:26.076Z,31.81
2018-06-01T12:11:55.393Z,32.04
2018-06-01T12:14:23.724Z,31.84
2018-06-01T12:16:52.430Z,32.02
2018-06-01T12:19:20.786Z,31.47
2018-06-01T12:21:49.117Z,31.56
2018-06-01T12:24:17.434Z,31.57
2018-06-01T12:26:46.329Z,31.78
2018-06-01T12:29:14.840Z,32.03
2018-06-01T12:31:43.172Z,32.07
2018-06-01T12:34:11.621Z,31.95
2018-06-01T12:36:40.090Z,31.28
2018-06-01T12:39:08.536Z,31.73
2018-06-01T12:41:36.904Z,32.09
2018-06-01T12:44:06.039Z,32.27
2018-06-01T12:46:35.136Z,32.43
2018-06-01T12:49:04.948Z,32.69
2018-06-01T12:51:33.393Z,32.94
2018-06-01T12:54:01.763Z,33.10
2018-06-01T12:56:30.250Z,32.60
2018-06-01T12:58:58.605Z,32.18
2018-06-01T13:01:26.937Z,32.59
2018-06-01T13:03:55.282Z,32.95
2018-06-01T13:06:23.725Z,32.98
2018-06-01T13:08:52.860Z,33.24
2018-06-01T13:11:21.703Z,32.93
2018-06-01T13:13:50.032Z,32.96
2018-06-01T13:16:19.418Z,32.98
2018-06-01T13:18:48.008Z,33.37
2018-06-01T13:21:16.411Z,33.37
2018-06-01T13:23:44.952Z,33.48
2018-06-01T13:26:13.389Z,33.52
2018-06-01T13:28:41.725Z,33.66
2018-06-01T13:31:10.044Z,33.34
2018-06-01T13:33:38.621Z,32.97
2018-06-01T13:36:06.973Z,32.93
2018-06-01T13:38:35.381Z,32.32
2018-06-01T13:41:03.774Z,32.28
2018-06-01T13:43:32.892Z,32.42
2018-06-01T13:46:02.019Z,32.73
2018-06-01T13:48:30.413Z,32.89
2018-06-01T13:50:58.780Z,32.64
2018-06-01T13:53:27.429Z,33.21
2018-06-01T13:55:56.624Z,32.60
2018-06-01T13:58:24.975Z,33.45
2018-06-01T14:00:53.292Z,33.64
2018-06-01T14:03:22.437Z,32.82
2018-06-01T14:05:50.750Z,32.85
2018-06-01T14:08:19.099Z,32.67
2018-06-01T14:10:48.248Z,32.76
2018-06-01T14:13:16.575Z,33.10
2018-06-01T14:15:44.904Z,33.10
2018-06-01T14:18:13.756Z,33.10
2018-06-01T14:20:42.105Z,33.39
2018-06-01T14:23:10.423Z,33.07
2018-06-01T14:25:38.768Z,33.00
2018-06-01T14:28:07.096Z,33.14
2018-06-01T14:30:35.405Z,32.72
2018-06-01T14:33:03.754Z,32.15
2018-06-01T14:35:32.846Z,31.89
2018-06-01T14:38:01.918Z,32.08
2018-06-01T14:40:30.346Z,31.81
2018-06-01T14:42:58.712Z,31.45
2018-06-01T14:45:27.058Z,31.55
2018-06-01T14:47:55.400Z,31.89
2018-06-01T14:50:23.743Z,31.44
2018-06-01T14:52:52.829Z,31.57
2018-06-01T14:55:22.199Z,32.20
2018-06-01T14:57:50.530Z,32.21
2018-06-01T15:00:18.846Z,32.09
2018-06-01T15:02:47.883Z,32.36
2018-06-01T15:05:16.224Z,32.14
2018-06-01T15:07:44.571Z,31.94
2018-06-01T15:10:12.906Z,31.55
2018-06-01T15:12:41.222Z,31.35
2018-06-01T15:15:09.582Z,31.29
2018-06-01T15:17:38.680Z,31.62
2018-06-01T15:20:07.778Z,31.83
2018-06-01T15:22:36.855Z,31.77
2018-06-01T15:25:05.358Z,32.37
2018-06-01T15:27:33.706Z,32.55
2018-06-01T15:30:02.055Z,32.29
2018-06-01T15:32:30.404Z,32.06
2018-06-01T15:34:59.491Z,32.24
2018-06-01T15:37:28.028Z,32.71
2018-06-01T15:39:56.398Z,33.10
2018-06-01T15:42:24.716Z,33.56
2018-06-01T15:44:53.771Z,33.46
2018-06-01T15:47:22.588Z,33.23
2018-06-01T15:49:50.916Z,33.19
2018-06-01T15:52:19.221Z,32.46
2018-06-01T15:54:47.587Z,31.89
2018-06-01T15:57:16.413Z,32.24
2018-06-01T15:59:44.740Z,32.71
2018-06-01T16:02:13.068Z,32.62
2018-06-01T16:04:41.385Z,32.11
2018-06-01T16:07:09.739Z,32.11
2018-06-01T16:09:39.351Z,32.14
2018-06-01T16:12:07.659Z,32.51
2018-06-01T16:14:36.347Z,32.68
2018-06-01T16:17:04.732Z,32.89
2018-06-01T16:19:33.064Z,32.98
2018-06-01T16:22:01.372Z,32.85
2018-06-01T16:24:29.721Z,32.68
2018-06-01T16:26:58.812Z,32.07
2018-06-01T16:29:27.133Z,32.36
2018-06-01T16:31:55.849Z,32.24
2018-06-01T16:34:24.187Z,32.09
2018-06-01T16:36:52.512Z,31.91
2018-06-01T16:39:20.855Z,31.76
2018-06-01T16:41:49.204Z,32.04
2018-06-01T16:44:18.302Z,31.99
2018-06-01T16:46:46.655Z,31.79
2018-06-01T16:49:15.247Z,31.85
2018-06-01T16:51:43.732Z,31.78
2018-06-01T16:54:12.431Z,31.93
2018-06-01T16:56:40.779Z,31.59
2018-06-01T16:59:09.128Z,31.54
2018-06-01T17:01:37.503Z,31.45
2018-06-01T17:04:05.925Z,31.44
2018-06-01T17:06:34.318Z,31.49
2018-06-01T17:09:03.427Z,31.20
2018-06-01T17:11:32.497Z,31.15
2018-06-01T17:14:01.104Z,31.08
2018-06-01T17:16:30.027Z,31.09
2018-06-01T17:18:58.327Z,31.21
2018-06-01T17:21:26.636Z,31.20
2018-06-01T17:23:55.775Z,31.04
2018-06-01T17:26:24.144Z,31.24
2018-06-01T17:28:52.464Z,31.44
2018-06-01T17:31:20.850Z,31.49
2018-06-01T17:33:49.186Z,31.31
2018-06-01T17:36:17.496Z,30.84
2018-06-01T17:38:45.894Z,31.03
2018-06-01T17:41:14.230Z,30.87
2018-06-01T17:43:42.548Z,30.80
2018-06-01T17:46:11.189Z,30.66
2018-06-01T17:48:39.526Z,30.67
2018-06-01T17:51:07.919Z,30.63
2018-06-01T17:53:37.032Z,30.78
2018-06-01T17:56:05.377Z,30.46
2018-06-01T17:58:33.728Z,30.75
2018-06-01T18:01:02.289Z,30.85
2018-06-01T18:03:30.602Z,30.84
2018-06-01T18:05:58.964Z,30.68
2018-06-01T18:08:27.301Z,30.72
2018-06-01T18:10:55.678Z,30.55
2018-06-01T18:13:24.770Z,29.93
2018-06-01T18:15:53.111Z,29.54
2018-06-01T18:18:21.435Z,29.38
2018-06-01T18:20:49.806Z,29.31
2018-06-01T18:23:19.001Z,29.68
2018-06-01T18:25:47.347Z,29.03
2018-06-01T18:28:15.708Z,29.05
2018-06-01T18:30:44.055Z,29.28
2018-06-01T18:33:12.912Z,29.21
2018-06-01T18:35:41.254Z,28.91
2018-06-01T18:38:09.623Z,28.54
2018-06-01T18:40:37.962Z,28.84
2018-06-01T18:43:06.310Z,28.91
2018-06-01T18:45:35.024Z,28.63
2018-06-01T18:48:04.122Z,28.66
2018-06-01T18:50:33.212Z,28.61
2018-06-01T18:53:02.333Z,28.33
2018-06-01T18:55:31.425Z,28.22
2018-06-01T18:58:01.399Z,28.15
2018-06-01T19:00:29.831Z,27.97
2018-06-01T19:02:58.184Z,28.06
2018-06-01T19:05:26.488Z,27.38
2018-06-01T19:07:55.136Z,27.30
2018-06-01T19:10:23.474Z,27.33
2018-06-01T19:12:51.810Z,27.30
2018-06-01T19:15:20.907Z,27.14
2018-06-01T19:17:49.979Z,27.11
2018-06-01T19:20:18.282Z,26.79
2018-06-01T19:22:47.474Z,26.78
2018-06-01T19:25:15.831Z,26.48
2018-06-01T19:27:44.189Z,26.61
2018-06-01T19:30:13.106Z,26.68
2018-06-01T19:32:41.418Z,26.97
2018-06-01T19:35:09.782Z,26.91
2018-06-01T19:37:38.917Z,26.96
2018-06-01T19:40:07.288Z,27.09
2018-06-01T19:42:35.594Z,26.93
2018-06-01T19:45:03.956Z,26.45
2018-06-01T19:47:32.295Z,26.19
2018-06-01T19:50:00.667Z,26.13
2018-06-01T19:52:30.019Z,26.20
2018-06-01T19:54:58.377Z,26.23
2018-06-01T19:57:27.030Z,26.16
2018-06-01T19:59:55.400Z,25.70
2018-06-01T20:02:23.730Z,25.97
2018-06-01T20:04:53.286Z,26.09
2018-06-01T20:07:21.624Z,26.15
2018-06-01T20:09:50.050Z,26.22
2018-06-01T20:12:18.397Z,26.30
2018-06-01T20:14:47.214Z,26.21
2018-06-01T20:17:15.915Z,26.10
2018-06-01T20:19:44.289Z,26.09
2018-06-01T20:22:13.586Z,26.14
2018-06-01T20:24:42.688Z,26.18
2018-06-01T20:27:11.884Z,26.30
2018-06-01T20:29:40.360Z,26.17
2018-06-01T20:32:08.883Z,25.98
2018-06-01T20:34:37.280Z,25.98
2018-06-01T20:37:05.699Z,26.06
2018-06-01T20:39:34.057Z,25.65
2018-06-01T20:42:02.402Z,26.00
2018-06-01T20:44:30.942Z,25.98
2018-06-01T20:47:00.067Z,25.69
2018-06-01T20:49:28.610Z,25.95
2018-06-01T20:51:56.984Z,25.95
2018-06-01T20:54:25.550Z,26.11
2018-06-01T20:56:54.095Z,26.26
2018-06-01T20:59:22.977Z,26.03
2018-06-01T21:01:51.399Z,26.27
2018-06-01T21:04:19.728Z,26.19
2018-06-01T21:06:48.082Z,26.07
2018-06-01T21:09:16.504Z,26.10
2018-06-01T21:11:44.976Z,26.01
2018-06-01T21:14:13.436Z,26.02
2018-06-01T21:16:41.922Z,26.00
2018-06-01T21:19:10.249Z,26.22
2018-06-01T21:21:38.871Z,26.10
2018-06-01T21:24:07.392Z,25.97
2018-06-01T21:26:35.824Z,25.92
2018-06-01T21:29:04.549Z,25.92
2018-06-01T21:31:32.914Z,25.88
2018-06-01T21:34:01.256Z,26.04
2018-06-01T21:36:29.847Z,26.01
2018-06-01T21:38:58.307Z,26.10
2018-06-01T21:41:26.747Z,26.16
2018-06-01T21:43:56.475Z,26.20
2018-06-01T21:46:24.821Z,26.13
2018-06-01T21:48:53.180Z,26.02
2018-06-01T21:51:21.573Z,25.85
2018-06-01T21:53:49.919Z,25.69
2018-06-01T21:56:18.502Z,25.76
2018-06-01T21:58:47.072Z,25.98
2018-06-01T22:01:16.155Z,26.07
2018-06-01T22:03:45.251Z,26.11
2018-06-01T22:06:14.544Z,26.10
2018-06-01T22:08:43.700Z,26.13
2018-06-01T22:11:12.851Z,26.20
2018-06-01T22:13:41.211Z,26.17
2018-06-01T22:16:10.355Z,26.00
2018-06-01T22:18:38.701Z,26.00
2018-06-01T22:21:07.200Z,25.94
2018-06-01T22:23:36.099Z,26.13
2018-06-01T22:26:04.454Z,26.24
2018-06-01T22:28:33.901Z,26.28
2018-06-01T22:31:02.538Z,26.10
2018-06-01T22:33:30.879Z,26.12
2018-06-01T22:35:59.296Z,26.01
2018-06-01T22:38:27.822Z,25.79
2018-06-01T22:40:56.147Z,25.87
2018-06-01T22:43:25.552Z,25.83
2018-06-01T22:45:54.021Z,25.87
2018-06-01T22:48:24.508Z,25.82
2018-06-01T22:50:53.139Z,25.51
2018-06-01T22:53:22.260Z,25.31
2018-06-01T22:55:50.652Z,25.26
2018-06-01T22:58:19.159Z,25.30
2018-06-01T23:00:47.564Z,25.20
2018-06-01T23:03:15.898Z,25.15
2018-06-01T23:05:44.351Z,25.07
2018-06-01T23:08:12.726Z,24.92
2018-06-01T23:10:41.826Z,24.81
2018-06-01T23:13:11.534Z,24.86
2018-06-01T23:15:40.735Z,24.88
2018-06-01T23:18:09.255Z,24.76
2018-06-01T23:20:37.608Z,24.41
2018-06-01T23:23:06.044Z,24.45
2018-06-01T23:25:34.417Z,24.56
2018-06-01T23:28:02.759Z,24.66
2018-06-01T23:30:31.220Z,24.73
2018-06-01T23:32:59.711Z,24.68
2018-06-01T23:35:28.808Z,24.68
2018-06-01T23:37:57.157Z,24.79
2018-06-01T23:40:25.763Z,24.74
2018-06-01T23:42:54.129Z,24.75
2018-06-01T23:45:23.334Z,24.77
2018-06-01T23:47:51.743Z,24.74
2018-06-01T23:50:20.356Z,24.85
2018-06-01T23:52:48.771Z,24.84
2018-06-01T23:55:17.124Z,24.72
2018-06-01T23:57:45.597Z,24.80
